sensor_id;sensor_type;location;lat;lon;timestamp;temperature;humidity
14397;DHT22;50653;47.810;13.022;2023-06-19T00:00:30;22.00;57.00
14397;DHT22;50653;47.810;13.022;2023-06-19T00:02:56;21.90;57.00
14397;DHT22;50653;47.810;13.022;2023-06-19T00:05:22;21.60;57.20
14397;DHT22;50653;47.810;13.022;2023-06-19T00:07:49;21.70;57.10
14397;DHT22;50653;47.810;13.022;2023-06-19T00:10:14;21.60;57.20
14397;DHT22;50653;47.810;13.022;2023-06-19T00:12:41;21.60;57.50
14397;DHT22;50653;47.810;13.022;2023-06-19T00:15:07;21.80;57.40
14397;DHT22;50653;47.810;13.022;2023-06-19T00:17:35;21.70;57.30
14397;DHT22;50653;47.810;13.022;2023-06-19T00:20:03;21.80;57.70
14397;DHT22;50653;47.810;13.022;2023-06-19T00:22:29;21.60;57.50
14397;DHT22;50653;47.810;13.022;2023-06-19T00:24:55;21.50;57.80
14397;DHT22;50653;47.810;13.022;2023-06-19T00:27:20;21.40;58.00
14397;DHT22;50653;47.810;13.022;2023-06-19T00:29:46;21.50;58.10
14397;DHT22;50653;47.810;13.022;2023-06-19T00:32:12;21.50;57.80
14397;DHT22;50653;47.810;13.022;2023-06-19T00:34:37;21.70;57.90
14397;DHT22;50653;47.810;13.022;2023-06-19T00:37:04;21.70;57.60
14397;DHT22;50653;47.810;13.022;2023-06-19T00:39:29;21.80;57.60
14397;DHT22;50653;47.810;13.022;2023-06-19T00:41:56;21.60;57.50
14397;DHT22;50653;47.810;13.022;2023-06-19T00:44:22;21.30;57.70
14397;DHT22;50653;47.810;13.022;2023-06-19T00:46:51;21.10;58.10
14397;DHT22;50653;47.810;13.022;2023-06-19T00:49:20;21.00;58.10
14397;DHT22;50653;47.810;13.022;2023-06-19T00:51:47;21.00;58.60
14397;DHT22;50653;47.810;13.022;2023-06-19T00:54:14;21.20;58.50
14397;DHT22;50653;47.810;13.022;2023-06-19T00:56:40;21.40;57.90
14397;DHT22;50653;47.810;13.022;2023-06-19T00:59:16;20.90;58.10
14397;DHT22;50653;47.810;13.022;2023-06-19T01:01:43;21.00;58.30
14397;DHT22;50653;47.810;13.022;2023-06-19T01:04:09;21.10;58.40
14397;DHT22;50653;47.810;13.022;2023-06-19T01:09:17;21.30;58.10
14397;DHT22;50653;47.810;13.022;2023-06-19T01:11:48;21.40;58.10
14397;DHT22;50653;47.810;13.022;2023-06-19T01:14:21;21.10;58.50
14397;DHT22;50653;47.810;13.022;2023-06-19T01:16:51;21.30;58.20
14397;DHT22;50653;47.810;13.022;2023-06-19T01:19:21;21.20;58.20
14397;DHT22;50653;47.810;13.022;2023-06-19T01:21:47;21.20;58.20
14397;DHT22;50653;47.810;13.022;2023-06-19T01:24:14;21.20;58.10
14397;DHT22;50653;47.810;13.022;2023-06-19T01:26:40;21.30;58.00
14397;DHT22;50653;47.810;13.022;2023-06-19T01:29:06;21.20;57.90
14397;DHT22;50653;47.810;13.022;2023-06-19T01:31:38;21.30;58.00
14397;DHT22;50653;47.810;13.022;2023-06-19T01:34:08;21.30;57.90
14397;DHT22;50653;47.810;13.022;2023-06-19T01:36:36;21.10;58.00
14397;DHT22;50653;47.810;13.022;2023-06-19T01:39:03;21.00;58.30
14397;DHT22;50653;47.810;13.022;2023-06-19T01:41:30;20.90;58.40
14397;DHT22;50653;47.810;13.022;2023-06-19T01:43:57;20.90;58.40
14397;DHT22;50653;47.810;13.022;2023-06-19T01:46:24;20.70;58.40
14397;DHT22;50653;47.810;13.022;2023-06-19T01:48:49;20.70;58.70
14397;DHT22;50653;47.810;13.022;2023-06-19T01:51:16;20.90;58.70
14397;DHT22;50653;47.810;13.022;2023-06-19T01:53:42;21.10;58.50
14397;DHT22;50653;47.810;13.022;2023-06-19T01:56:09;21.00;58.50
14397;DHT22;50653;47.810;13.022;2023-06-19T01:58:34;20.90;58.60
14397;DHT22;50653;47.810;13.022;2023-06-19T02:01:01;20.80;58.40
14397;DHT22;50653;47.810;13.022;2023-06-19T02:03:26;20.70;58.80
14397;DHT22;50653;47.810;13.022;2023-06-19T02:05:52;20.60;59.00
14397;DHT22;50653;47.810;13.022;2023-06-19T02:08:19;20.20;59.40
14397;DHT22;50653;47.810;13.022;2023-06-19T02:10:45;20.30;59.40
14397;DHT22;50653;47.810;13.022;2023-06-19T02:13:10;20.70;58.90
14397;DHT22;50653;47.810;13.022;2023-06-19T02:15:36;20.80;58.50
14397;DHT22;50653;47.810;13.022;2023-06-19T02:18:02;20.70;58.70
14397;DHT22;50653;47.810;13.022;2023-06-19T02:20:28;20.70;58.80
14397;DHT22;50653;47.810;13.022;2023-06-19T02:22:55;20.60;58.90
14397;DHT22;50653;47.810;13.022;2023-06-19T02:25:21;20.80;58.80
14397;DHT22;50653;47.810;13.022;2023-06-19T02:27:47;20.70;58.90
14397;DHT22;50653;47.810;13.022;2023-06-19T02:30:13;20.60;58.90
14397;DHT22;50653;47.810;13.022;2023-06-19T02:32:39;20.50;59.30
14397;DHT22;50653;47.810;13.022;2023-06-19T02:35:07;20.50;59.30
14397;DHT22;50653;47.810;13.022;2023-06-19T02:37:34;20.70;59.10
14397;DHT22;50653;47.810;13.022;2023-06-19T02:40:05;20.60;58.80
14397;DHT22;50653;47.810;13.022;2023-06-19T02:42:32;20.70;58.90
14397;DHT22;50653;47.810;13.022;2023-06-19T02:44:58;20.60;58.70
14397;DHT22;50653;47.810;13.022;2023-06-19T02:47:29;20.80;58.80
14397;DHT22;50653;47.810;13.022;2023-06-19T02:49:57;20.70;59.10
14397;DHT22;50653;47.810;13.022;2023-06-19T02:52:23;20.80;58.50
14397;DHT22;50653;47.810;13.022;2023-06-19T02:54:48;20.70;58.50
14397;DHT22;50653;47.810;13.022;2023-06-19T02:57:14;20.60;58.60
14397;DHT22;50653;47.810;13.022;2023-06-19T02:59:42;20.70;59.00
14397;DHT22;50653;47.810;13.022;2023-06-19T03:02:07;20.80;58.60
14397;DHT22;50653;47.810;13.022;2023-06-19T03:04:33;20.60;58.60
14397;DHT22;50653;47.810;13.022;2023-06-19T03:06:59;20.30;59.00
14397;DHT22;50653;47.810;13.022;2023-06-19T03:09:25;20.30;59.10
14397;DHT22;50653;47.810;13.022;2023-06-19T03:11:51;20.30;59.00
14397;DHT22;50653;47.810;13.022;2023-06-19T03:14:16;20.30;59.20
14397;DHT22;50653;47.810;13.022;2023-06-19T03:16:42;20.50;59.10
14397;DHT22;50653;47.810;13.022;2023-06-19T03:19:08;20.50;59.10
14397;DHT22;50653;47.810;13.022;2023-06-19T03:21:34;20.50;59.00
14397;DHT22;50653;47.810;13.022;2023-06-19T03:24:00;20.60;59.00
14397;DHT22;50653;47.810;13.022;2023-06-19T03:26:26;20.60;59.00
14397;DHT22;50653;47.810;13.022;2023-06-19T03:28:54;20.60;58.90
14397;DHT22;50653;47.810;13.022;2023-06-19T03:31:20;20.50;59.10
14397;DHT22;50653;47.810;13.022;2023-06-19T03:33:46;20.70;59.00
14397;DHT22;50653;47.810;13.022;2023-06-19T03:36:12;20.70;59.00
14397;DHT22;50653;47.810;13.022;2023-06-19T03:38:52;20.60;59.00
14397;DHT22;50653;47.810;13.022;2023-06-19T03:41:22;20.60;59.00
14397;DHT22;50653;47.810;13.022;2023-06-19T03:43:47;20.50;58.90
14397;DHT22;50653;47.810;13.022;2023-06-19T03:46:13;20.50;59.00
14397;DHT22;50653;47.810;13.022;2023-06-19T03:48:39;20.40;59.00
14397;DHT22;50653;47.810;13.022;2023-06-19T03:51:05;20.30;59.10
14397;DHT22;50653;47.810;13.022;2023-06-19T03:53:30;20.50;59.00
14397;DHT22;50653;47.810;13.022;2023-06-19T03:55:56;20.40;59.00
14397;DHT22;50653;47.810;13.022;2023-06-19T03:58:22;20.50;59.00
14397;DHT22;50653;47.810;13.022;2023-06-19T04:00:47;20.50;59.00
14397;DHT22;50653;47.810;13.022;2023-06-19T04:03:13;20.50;58.90
14397;DHT22;50653;47.810;13.022;2023-06-19T04:05:39;20.50;58.90
14397;DHT22;50653;47.810;13.022;2023-06-19T04:08:07;20.40;59.00
14397;DHT22;50653;47.810;13.022;2023-06-19T04:10:32;20.40;58.70
14397;DHT22;50653;47.810;13.022;2023-06-19T04:12:59;20.60;58.60
14397;DHT22;50653;47.810;13.022;2023-06-19T04:15:25;20.50;58.50
14397;DHT22;50653;47.810;13.022;2023-06-19T04:17:50;20.60;58.40
14397;DHT22;50653;47.810;13.022;2023-06-19T04:20:16;20.70;58.20
14397;DHT22;50653;47.810;13.022;2023-06-19T04:22:42;20.50;58.50
14397;DHT22;50653;47.810;13.022;2023-06-19T04:25:08;20.50;58.40
14397;DHT22;50653;47.810;13.022;2023-06-19T04:27:35;20.40;58.60
14397;DHT22;50653;47.810;13.022;2023-06-19T04:30:03;20.60;58.50
14397;DHT22;50653;47.810;13.022;2023-06-19T04:32:30;20.50;58.40
14397;DHT22;50653;47.810;13.022;2023-06-19T04:34:55;20.50;58.70
14397;DHT22;50653;47.810;13.022;2023-06-19T04:37:21;20.40;58.60
14397;DHT22;50653;47.810;13.022;2023-06-19T04:39:47;20.50;58.80
14397;DHT22;50653;47.810;13.022;2023-06-19T04:42:17;20.50;58.90
14397;DHT22;50653;47.810;13.022;2023-06-19T04:44:49;20.50;58.80
14397;DHT22;50653;47.810;13.022;2023-06-19T04:47:17;20.50;58.80
14397;DHT22;50653;47.810;13.022;2023-06-19T04:49:43;20.70;58.90
14397;DHT22;50653;47.810;13.022;2023-06-19T04:52:09;20.50;58.90
14397;DHT22;50653;47.810;13.022;2023-06-19T04:54:34;20.50;59.00
14397;DHT22;50653;47.810;13.022;2023-06-19T04:57:00;20.80;58.90
14397;DHT22;50653;47.810;13.022;2023-06-19T04:59:27;20.80;58.70
14397;DHT22;50653;47.810;13.022;2023-06-19T05:01:52;20.80;58.80
14397;DHT22;50653;47.810;13.022;2023-06-19T05:04:21;20.70;58.80
14397;DHT22;50653;47.810;13.022;2023-06-19T05:06:48;20.80;58.80
14397;DHT22;50653;47.810;13.022;2023-06-19T05:09:14;20.80;58.70
14397;DHT22;50653;47.810;13.022;2023-06-19T05:11:40;20.80;58.80
14397;DHT22;50653;47.810;13.022;2023-06-19T05:14:05;20.70;58.90
14397;DHT22;50653;47.810;13.022;2023-06-19T05:16:33;20.60;58.90
14397;DHT22;50653;47.810;13.022;2023-06-19T05:18:58;20.70;58.80
14397;DHT22;50653;47.810;13.022;2023-06-19T05:21:24;20.70;58.70
14397;DHT22;50653;47.810;13.022;2023-06-19T05:23:50;20.70;58.50
14397;DHT22;50653;47.810;13.022;2023-06-19T05:26:19;20.80;58.70
14397;DHT22;50653;47.810;13.022;2023-06-19T05:28:46;20.80;58.80
14397;DHT22;50653;47.810;13.022;2023-06-19T05:31:11;20.80;58.60
14397;DHT22;50653;47.810;13.022;2023-06-19T05:33:37;20.80;58.50
14397;DHT22;50653;47.810;13.022;2023-06-19T05:36:03;20.80;58.60
14397;DHT22;50653;47.810;13.022;2023-06-19T05:38:28;20.80;58.70
14397;DHT22;50653;47.810;13.022;2023-06-19T05:40:56;20.70;58.80
14397;DHT22;50653;47.810;13.022;2023-06-19T05:43:22;20.70;58.90
14397;DHT22;50653;47.810;13.022;2023-06-19T05:45:50;20.80;58.90
14397;DHT22;50653;47.810;13.022;2023-06-19T05:48:15;20.80;58.90
14397;DHT22;50653;47.810;13.022;2023-06-19T05:50:41;20.70;59.00
14397;DHT22;50653;47.810;13.022;2023-06-19T05:53:06;20.80;58.90
14397;DHT22;50653;47.810;13.022;2023-06-19T05:55:32;20.80;59.10
14397;DHT22;50653;47.810;13.022;2023-06-19T05:57:58;20.80;59.20
14397;DHT22;50653;47.810;13.022;2023-06-19T06:00:23;20.80;59.40
14397;DHT22;50653;47.810;13.022;2023-06-19T06:02:49;20.90;59.00
14397;DHT22;50653;47.810;13.022;2023-06-19T06:05:17;21.00;59.00
14397;DHT22;50653;47.810;13.022;2023-06-19T06:07:44;21.10;59.00
14397;DHT22;50653;47.810;13.022;2023-06-19T06:10:10;21.10;59.10
14397;DHT22;50653;47.810;13.022;2023-06-19T06:12:36;21.10;59.00
14397;DHT22;50653;47.810;13.022;2023-06-19T06:15:03;21.10;58.90
14397;DHT22;50653;47.810;13.022;2023-06-19T06:17:29;21.10;59.10
14397;DHT22;50653;47.810;13.022;2023-06-19T06:19:55;21.10;59.10
14397;DHT22;50653;47.810;13.022;2023-06-19T06:22:20;21.10;59.20
14397;DHT22;50653;47.810;13.022;2023-06-19T06:24:46;21.00;59.40
14397;DHT22;50653;47.810;13.022;2023-06-19T06:27:12;21.00;60.00
14397;DHT22;50653;47.810;13.022;2023-06-19T06:29:39;21.00;61.40
14397;DHT22;50653;47.810;13.022;2023-06-19T06:32:06;21.00;61.00
14397;DHT22;50653;47.810;13.022;2023-06-19T06:34:35;21.00;60.40
14397;DHT22;50653;47.810;13.022;2023-06-19T06:37:01;21.10;60.30
14397;DHT22;50653;47.810;13.022;2023-06-19T06:39:27;21.20;60.00
14397;DHT22;50653;47.810;13.022;2023-06-19T06:41:53;21.10;60.30
14397;DHT22;50653;47.810;13.022;2023-06-19T06:44:19;21.20;60.10
14397;DHT22;50653;47.810;13.022;2023-06-19T06:46:44;21.30;59.60
14397;DHT22;50653;47.810;13.022;2023-06-19T06:49:11;21.40;59.70
14397;DHT22;50653;47.810;13.022;2023-06-19T06:51:36;21.50;59.60
14397;DHT22;50653;47.810;13.022;2023-06-19T06:54:02;21.50;59.40
14397;DHT22;50653;47.810;13.022;2023-06-19T06:56:28;21.50;59.40
14397;DHT22;50653;47.810;13.022;2023-06-19T06:58:53;21.40;59.50
14397;DHT22;50653;47.810;13.022;2023-06-19T07:01:19;21.40;59.20
14397;DHT22;50653;47.810;13.022;2023-06-19T07:03:45;21.50;59.50
14397;DHT22;50653;47.810;13.022;2023-06-19T07:06:10;21.50;59.60
14397;DHT22;50653;47.810;13.022;2023-06-19T07:08:36;21.50;59.40
14397;DHT22;50653;47.810;13.022;2023-06-19T07:11:02;21.60;59.20
14397;DHT22;50653;47.810;13.022;2023-06-19T07:13:28;21.70;59.10
14397;DHT22;50653;47.810;13.022;2023-06-19T07:15:54;21.70;59.10
14397;DHT22;50653;47.810;13.022;2023-06-19T07:18:19;21.80;59.20
14397;DHT22;50653;47.810;13.022;2023-06-19T07:20:45;21.80;59.20
14397;DHT22;50653;47.810;13.022;2023-06-19T07:23:11;21.80;59.40
14397;DHT22;50653;47.810;13.022;2023-06-19T07:25:37;21.80;59.40
14397;DHT22;50653;47.810;13.022;2023-06-19T07:28:03;21.80;59.50
14397;DHT22;50653;47.810;13.022;2023-06-19T07:30:30;21.90;59.70
14397;DHT22;50653;47.810;13.022;2023-06-19T07:32:56;22.00;59.40
14397;DHT22;50653;47.810;13.022;2023-06-19T07:35:21;22.00;59.50
14397;DHT22;50653;47.810;13.022;2023-06-19T07:37:47;22.10;60.80
14397;DHT22;50653;47.810;13.022;2023-06-19T07:40:13;22.00;62.80
14397;DHT22;50653;47.810;13.022;2023-06-19T07:42:38;21.90;64.00
14397;DHT22;50653;47.810;13.022;2023-06-19T07:45:04;21.80;64.10
14397;DHT22;50653;47.810;13.022;2023-06-19T07:47:30;21.90;62.70
14397;DHT22;50653;47.810;13.022;2023-06-19T07:49:56;22.00;61.20
14397;DHT22;50653;47.810;13.022;2023-06-19T07:52:21;22.20;61.00
14397;DHT22;50653;47.810;13.022;2023-06-19T07:54:57;22.20;61.80
14397;DHT22;50653;47.810;13.022;2023-06-19T07:57:24;22.20;62.60
14397;DHT22;50653;47.810;13.022;2023-06-19T07:59:51;22.30;61.40
14397;DHT22;50653;47.810;13.022;2023-06-19T08:02:17;22.40;61.10
14397;DHT22;50653;47.810;13.022;2023-06-19T08:04:43;22.50;61.70
14397;DHT22;50653;47.810;13.022;2023-06-19T08:07:09;22.60;61.40
14397;DHT22;50653;47.810;13.022;2023-06-19T08:09:34;22.60;61.80
14397;DHT22;50653;47.810;13.022;2023-06-19T08:12:01;22.70;62.10
14397;DHT22;50653;47.810;13.022;2023-06-19T08:14:27;22.80;61.30
14397;DHT22;50653;47.810;13.022;2023-06-19T08:16:52;22.80;61.10
14397;DHT22;50653;47.810;13.022;2023-06-19T08:19:18;22.90;61.50
14397;DHT22;50653;47.810;13.022;2023-06-19T08:21:43;22.90;60.10
14397;DHT22;50653;47.810;13.022;2023-06-19T08:24:09;23.00;59.80
14397;DHT22;50653;47.810;13.022;2023-06-19T08:26:35;23.10;60.10
14397;DHT22;50653;47.810;13.022;2023-06-19T08:29:00;23.10;60.80
14397;DHT22;50653;47.810;13.022;2023-06-19T08:31:26;23.20;61.00
14397;DHT22;50653;47.810;13.022;2023-06-19T08:33:56;23.10;60.60
14397;DHT22;50653;47.810;13.022;2023-06-19T08:36:23;23.20;60.90
14397;DHT22;50653;47.810;13.022;2023-06-19T08:38:49;23.30;61.20
14397;DHT22;50653;47.810;13.022;2023-06-19T08:41:17;23.30;61.20
14397;DHT22;50653;47.810;13.022;2023-06-19T08:43:44;23.40;61.10
14397;DHT22;50653;47.810;13.022;2023-06-19T08:46:14;23.50;61.40
14397;DHT22;50653;47.810;13.022;2023-06-19T08:48:40;23.50;61.50
14397;DHT22;50653;47.810;13.022;2023-06-19T08:51:06;23.70;61.20
14397;DHT22;50653;47.810;13.022;2023-06-19T08:53:43;23.80;60.70
14397;DHT22;50653;47.810;13.022;2023-06-19T08:56:09;23.80;60.50
14397;DHT22;50653;47.810;13.022;2023-06-19T08:58:34;23.80;60.80
14397;DHT22;50653;47.810;13.022;2023-06-19T09:01:00;23.80;60.40
14397;DHT22;50653;47.810;13.022;2023-06-19T09:03:26;24.00;60.90
14397;DHT22;50653;47.810;13.022;2023-06-19T09:05:51;24.00;60.40
14397;DHT22;50653;47.810;13.022;2023-06-19T09:08:18;24.10;61.10
14397;DHT22;50653;47.810;13.022;2023-06-19T09:10:59;24.20;60.10
14397;DHT22;50653;47.810;13.022;2023-06-19T09:13:25;24.20;59.70
14397;DHT22;50653;47.810;13.022;2023-06-19T09:16:04;24.10;60.00
14397;DHT22;50653;47.810;13.022;2023-06-19T09:18:31;24.00;60.70
14397;DHT22;50653;47.810;13.022;2023-06-19T09:20:57;24.00;59.60
14397;DHT22;50653;47.810;13.022;2023-06-19T09:23:24;23.90;59.70
14397;DHT22;50653;47.810;13.022;2023-06-19T09:25:53;24.20;59.00
14397;DHT22;50653;47.810;13.022;2023-06-19T09:28:22;24.10;59.50
14397;DHT22;50653;47.810;13.022;2023-06-19T09:30:59;24.30;59.20
14397;DHT22;50653;47.810;13.022;2023-06-19T09:33:26;24.50;58.30
14397;DHT22;50653;47.810;13.022;2023-06-19T09:35:54;24.40;58.70
14397;DHT22;50653;47.810;13.022;2023-06-19T09:38:23;24.30;58.60
14397;DHT22;50653;47.810;13.022;2023-06-19T09:40:51;24.20;58.90
14397;DHT22;50653;47.810;13.022;2023-06-19T09:43:19;24.60;58.20
14397;DHT22;50653;47.810;13.022;2023-06-19T09:45:50;24.50;58.20
14397;DHT22;50653;47.810;13.022;2023-06-19T09:48:20;24.30;58.60
14397;DHT22;50653;47.810;13.022;2023-06-19T09:50:54;24.30;58.80
14397;DHT22;50653;47.810;13.022;2023-06-19T09:53:20;24.60;59.20
14397;DHT22;50653;47.810;13.022;2023-06-19T09:55:49;24.70;59.20
14397;DHT22;50653;47.810;13.022;2023-06-19T09:58:19;24.60;59.20
14397;DHT22;50653;47.810;13.022;2023-06-19T10:00:46;24.80;59.20
14397;DHT22;50653;47.810;13.022;2023-06-19T10:03:13;24.90;59.50
14397;DHT22;50653;47.810;13.022;2023-06-19T10:05:39;25.00;59.10
14397;DHT22;50653;47.810;13.022;2023-06-19T10:08:08;24.90;59.30
14397;DHT22;50653;47.810;13.022;2023-06-19T10:10:34;25.00;59.80
14397;DHT22;50653;47.810;13.022;2023-06-19T10:13:20;24.80;59.40
14397;DHT22;50653;47.810;13.022;2023-06-19T10:15:46;24.90;59.50
14397;DHT22;50653;47.810;13.022;2023-06-19T10:18:14;24.90;59.50
14397;DHT22;50653;47.810;13.022;2023-06-19T10:20:45;25.10;60.30
14397;DHT22;50653;47.810;13.022;2023-06-19T10:23:12;25.20;60.30
14397;DHT22;50653;47.810;13.022;2023-06-19T10:25:47;25.30;59.80
14397;DHT22;50653;47.810;13.022;2023-06-19T10:28:21;25.30;61.00
14397;DHT22;50653;47.810;13.022;2023-06-19T10:31:03;25.50;60.60
14397;DHT22;50653;47.810;13.022;2023-06-19T10:33:31;25.50;61.10
14397;DHT22;50653;47.810;13.022;2023-06-19T10:36:21;25.60;60.70
14397;DHT22;50653;47.810;13.022;2023-06-19T10:38:51;25.50;61.00
14397;DHT22;50653;47.810;13.022;2023-06-19T10:41:18;25.50;61.10
14397;DHT22;50653;47.810;13.022;2023-06-19T10:44:02;25.50;60.40
14397;DHT22;50653;47.810;13.022;2023-06-19T10:46:31;25.40;60.00
14397;DHT22;50653;47.810;13.022;2023-06-19T10:48:58;25.50;59.70
14397;DHT22;50653;47.810;13.022;2023-06-19T10:51:30;25.70;59.30
14397;DHT22;50653;47.810;13.022;2023-06-19T10:53:56;25.80;59.80
14397;DHT22;50653;47.810;13.022;2023-06-19T10:56:23;25.90;59.90
14397;DHT22;50653;47.810;13.022;2023-06-19T10:59:00;25.70;60.00
14397;DHT22;50653;47.810;13.022;2023-06-19T11:01:43;25.70;58.80
14397;DHT22;50653;47.810;13.022;2023-06-19T11:04:11;25.50;58.50
14397;DHT22;50653;47.810;13.022;2023-06-19T11:06:38;25.80;57.90
14397;DHT22;50653;47.810;13.022;2023-06-19T11:09:06;26.00;57.30
14397;DHT22;50653;47.810;13.022;2023-06-19T11:11:43;26.00;56.90
14397;DHT22;50653;47.810;13.022;2023-06-19T11:14:10;26.00;57.30
14397;DHT22;50653;47.810;13.022;2023-06-19T11:16:39;25.90;57.00
14397;DHT22;50653;47.810;13.022;2023-06-19T11:19:14;25.80;56.90
14397;DHT22;50653;47.810;13.022;2023-06-19T11:21:40;25.80;57.20
14397;DHT22;50653;47.810;13.022;2023-06-19T11:24:14;26.00;57.30
14397;DHT22;50653;47.810;13.022;2023-06-19T11:26:41;26.20;56.30
14397;DHT22;50653;47.810;13.022;2023-06-19T11:29:26;26.50;55.70
14397;DHT22;50653;47.810;13.022;2023-06-19T11:32:04;26.30;56.10
14397;DHT22;50653;47.810;13.022;2023-06-19T11:34:34;26.30;56.40
14397;DHT22;50653;47.810;13.022;2023-06-19T11:37:11;26.40;56.30
14397;DHT22;50653;47.810;13.022;2023-06-19T11:39:37;26.40;57.10
14397;DHT22;50653;47.810;13.022;2023-06-19T11:42:03;26.40;57.00
14397;DHT22;50653;47.810;13.022;2023-06-19T11:44:29;26.70;56.50
14397;DHT22;50653;47.810;13.022;2023-06-19T11:46:58;26.60;56.70
14397;DHT22;50653;47.810;13.022;2023-06-19T11:49:27;26.70;56.70
14397;DHT22;50653;47.810;13.022;2023-06-19T11:51:58;26.70;57.00
14397;DHT22;50653;47.810;13.022;2023-06-19T11:54:23;26.60;57.50
14397;DHT22;50653;47.810;13.022;2023-06-19T11:56:49;26.80;56.80
14397;DHT22;50653;47.810;13.022;2023-06-19T11:59:15;26.80;56.60
14397;DHT22;50653;47.810;13.022;2023-06-19T12:01:40;27.10;56.50
14397;DHT22;50653;47.810;13.022;2023-06-19T12:04:06;27.20;56.00
14397;DHT22;50653;47.810;13.022;2023-06-19T12:06:32;27.20;55.90
14397;DHT22;50653;47.810;13.022;2023-06-19T12:09:00;27.20;56.00
14397;DHT22;50653;47.810;13.022;2023-06-19T12:11:26;27.10;56.10
14397;DHT22;50653;47.810;13.022;2023-06-19T12:13:52;27.10;56.30
14397;DHT22;50653;47.810;13.022;2023-06-19T12:16:18;27.20;56.20
14397;DHT22;50653;47.810;13.022;2023-06-19T12:18:44;27.10;56.20
14397;DHT22;50653;47.810;13.022;2023-06-19T12:21:10;27.30;55.50
14397;DHT22;50653;47.810;13.022;2023-06-19T12:23:35;27.50;55.70
14397;DHT22;50653;47.810;13.022;2023-06-19T12:26:01;27.70;55.10
14397;DHT22;50653;47.810;13.022;2023-06-19T12:28:27;27.50;55.40
14397;DHT22;50653;47.810;13.022;2023-06-19T12:30:53;27.40;56.00
14397;DHT22;50653;47.810;13.022;2023-06-19T12:33:19;27.40;55.30
14397;DHT22;50653;47.810;13.022;2023-06-19T12:35:46;27.50;55.40
14397;DHT22;50653;47.810;13.022;2023-06-19T12:38:12;27.60;55.30
14397;DHT22;50653;47.810;13.022;2023-06-19T12:40:38;27.20;55.30
14397;DHT22;50653;47.810;13.022;2023-06-19T12:43:04;27.10;55.60
14397;DHT22;50653;47.810;13.022;2023-06-19T12:45:30;27.60;54.90
14397;DHT22;50653;47.810;13.022;2023-06-19T12:47:55;27.70;54.70
14397;DHT22;50653;47.810;13.022;2023-06-19T12:50:21;27.90;54.70
14397;DHT22;50653;47.810;13.022;2023-06-19T12:52:47;28.00;55.10
14397;DHT22;50653;47.810;13.022;2023-06-19T12:55:13;27.90;55.30
14397;DHT22;50653;47.810;13.022;2023-06-19T12:57:39;27.70;55.30
14397;DHT22;50653;47.810;13.022;2023-06-19T13:00:10;27.60;55.20
14397;DHT22;50653;47.810;13.022;2023-06-19T13:02:35;27.80;55.00
14397;DHT22;50653;47.810;13.022;2023-06-19T13:05:01;27.90;55.20
14397;DHT22;50653;47.810;13.022;2023-06-19T13:07:27;28.00;54.60
14397;DHT22;50653;47.810;13.022;2023-06-19T13:09:53;27.80;55.10
14397;DHT22;50653;47.810;13.022;2023-06-19T13:12:18;27.90;55.00
14397;DHT22;50653;47.810;13.022;2023-06-19T13:14:44;27.80;54.90
14397;DHT22;50653;47.810;13.022;2023-06-19T13:17:09;27.90;55.10
14397;DHT22;50653;47.810;13.022;2023-06-19T13:19:35;28.10;55.10
14397;DHT22;50653;47.810;13.022;2023-06-19T13:22:01;28.40;55.60
14397;DHT22;50653;47.810;13.022;2023-06-19T13:24:27;28.20;55.80
14397;DHT22;50653;47.810;13.022;2023-06-19T13:26:53;28.30;54.90
14397;DHT22;50653;47.810;13.022;2023-06-19T13:29:19;28.20;54.50
14397;DHT22;50653;47.810;13.022;2023-06-19T13:31:45;27.90;54.80
14397;DHT22;50653;47.810;13.022;2023-06-19T13:34:10;27.80;55.20
14397;DHT22;50653;47.810;13.022;2023-06-19T13:36:36;28.10;54.50
14397;DHT22;50653;47.810;13.022;2023-06-19T13:39:03;28.20;54.70
14397;DHT22;50653;47.810;13.022;2023-06-19T13:41:28;28.40;54.80
14397;DHT22;50653;47.810;13.022;2023-06-19T13:43:56;28.40;54.90
14397;DHT22;50653;47.810;13.022;2023-06-19T13:46:22;28.60;54.60
14397;DHT22;50653;47.810;13.022;2023-06-19T13:48:48;28.70;54.70
14397;DHT22;50653;47.810;13.022;2023-06-19T13:51:17;28.80;54.40
14397;DHT22;50653;47.810;13.022;2023-06-19T13:53:43;28.60;54.40
14397;DHT22;50653;47.810;13.022;2023-06-19T13:56:10;28.70;54.60
14397;DHT22;50653;47.810;13.022;2023-06-19T13:58:35;28.80;54.60
14397;DHT22;50653;47.810;13.022;2023-06-19T14:01:01;28.90;54.50
14397;DHT22;50653;47.810;13.022;2023-06-19T14:03:26;28.80;54.30
14397;DHT22;50653;47.810;13.022;2023-06-19T14:05:52;28.70;54.40
14397;DHT22;50653;47.810;13.022;2023-06-19T14:08:18;28.90;54.00
14397;DHT22;50653;47.810;13.022;2023-06-19T14:10:43;29.10;53.50
14397;DHT22;50653;47.810;13.022;2023-06-19T14:13:09;29.10;53.30
14397;DHT22;50653;47.810;13.022;2023-06-19T14:15:35;29.00;53.50
14397;DHT22;50653;47.810;13.022;2023-06-19T14:18:00;29.00;54.10
14397;DHT22;50653;47.810;13.022;2023-06-19T14:20:26;29.30;53.10
14397;DHT22;50653;47.810;13.022;2023-06-19T14:22:52;29.40;53.10
14397;DHT22;50653;47.810;13.022;2023-06-19T14:25:17;29.10;53.60
14397;DHT22;50653;47.810;13.022;2023-06-19T14:27:43;29.20;53.50
14397;DHT22;50653;47.810;13.022;2023-06-19T14:30:09;29.40;53.20
14397;DHT22;50653;47.810;13.022;2023-06-19T14:32:35;29.70;52.70
14397;DHT22;50653;47.810;13.022;2023-06-19T14:35:03;29.50;52.60
14397;DHT22;50653;47.810;13.022;2023-06-19T14:37:29;29.50;53.10
14397;DHT22;50653;47.810;13.022;2023-06-19T14:39:54;29.60;53.50
14397;DHT22;50653;47.810;13.022;2023-06-19T14:42:20;29.40;53.10
14397;DHT22;50653;47.810;13.022;2023-06-19T14:44:46;29.50;53.20
14397;DHT22;50653;47.810;13.022;2023-06-19T14:47:12;29.60;52.70
14397;DHT22;50653;47.810;13.022;2023-06-19T14:49:37;29.60;52.50
14397;DHT22;50653;47.810;13.022;2023-06-19T14:52:04;29.70;52.30
14397;DHT22;50653;47.810;13.022;2023-06-19T14:54:30;29.90;52.20
14397;DHT22;50653;47.810;13.022;2023-06-19T14:56:56;29.90;52.20
14397;DHT22;50653;47.810;13.022;2023-06-19T14:59:22;29.70;52.50
14397;DHT22;50653;47.810;13.022;2023-06-19T15:01:47;29.80;52.60
14397;DHT22;50653;47.810;13.022;2023-06-19T15:04:13;30.10;51.90
14397;DHT22;50653;47.810;13.022;2023-06-19T15:06:38;30.30;51.60
14397;DHT22;50653;47.810;13.022;2023-06-19T15:09:04;30.30;51.40
14397;DHT22;50653;47.810;13.022;2023-06-19T15:11:30;30.40;51.60
14397;DHT22;50653;47.810;13.022;2023-06-19T15:13:55;30.50;51.70
14397;DHT22;50653;47.810;13.022;2023-06-19T15:16:21;31.00;51.00